createdAt,value
2022-08-28T00:00:16.216Z,4.80
2022-08-28T00:02:45.685Z,4.30
2022-08-28T00:05:16.316Z,4.80
2022-08-28T00:07:47.770Z,4.40
2022-08-28T00:10:18.496Z,4.97
2022-08-28T00:12:49.337Z,4.38
2022-08-28T00:15:22.083Z,4.50
2022-08-28T00:17:50.900Z,3.78
2022-08-28T00:20:20.976Z,4.07
2022-08-28T00:22:50.003Z,4.07
2022-08-28T00:25:24.218Z,4.63
2022-08-28T00:27:55.057Z,4.50
2022-08-28T00:30:36.562Z,4.03
2022-08-28T00:33:12.680Z,3.92
2022-08-28T00:35:42.359Z,3.85
2022-08-28T00:38:12.647Z,4.13
2022-08-28T00:40:44.564Z,4.70
2022-08-28T00:43:25.371Z,4.68
2022-08-28T00:45:53.841Z,4.55
2022-08-28T00:48:22.038Z,5.03
2022-08-28T00:51:09.020Z,5.70
2022-08-28T00:53:37.651Z,4.80
2022-08-28T00:56:12.903Z,4.30
2022-08-28T00:58:44.876Z,3.85
2022-08-28T01:01:14.168Z,4.28
2022-08-28T01:03:43.739Z,4.13
2022-08-28T01:06:15.729Z,3.50
2022-08-28T01:08:46.232Z,3.55
2022-08-28T01:11:20.566Z,3.80
2022-08-28T01:13:49.789Z,4.13
2022-08-28T01:16:19.527Z,4.38
2022-08-28T01:18:49.779Z,4.80
2022-08-28T01:21:32.491Z,4.13
2022-08-28T01:24:10.376Z,4.28
2022-08-28T01:26:39.006Z,4.00
2022-08-28T01:29:08.673Z,4.25
2022-08-28T01:31:38.776Z,4.60
2022-08-28T01:34:09.449Z,4.50
2022-08-28T01:36:39.174Z,4.05
2022-08-28T01:39:15.913Z,4.10
2022-08-28T01:41:46.895Z,3.78
2022-08-28T01:44:17.867Z,4.47
2022-08-28T01:46:47.162Z,4.18
2022-08-28T01:49:15.430Z,4.00
2022-08-28T01:51:43.757Z,4.05
2022-08-28T01:54:12.736Z,4.30
2022-08-28T01:56:42.506Z,3.85
2022-08-28T01:59:12.790Z,4.03
2022-08-28T02:02:00.312Z,4.30
2022-08-28T02:04:31.784Z,4.28
2022-08-28T02:07:00.999Z,3.70
2022-08-28T02:09:29.219Z,3.78
2022-08-28T02:11:57.754Z,4.00
2022-08-28T02:14:25.949Z,4.38
2022-08-28T02:16:54.277Z,4.35
2022-08-28T02:19:22.742Z,3.75
2022-08-28T02:21:51.296Z,3.97
2022-08-28T02:24:20.296Z,3.75
2022-08-28T02:26:48.607Z,4.30
2022-08-28T02:29:17.239Z,3.78
2022-08-28T02:31:45.388Z,4.30
2022-08-28T02:34:13.574Z,4.45
2022-08-28T02:36:42.678Z,4.28
2022-08-28T02:39:11.458Z,4.28
2022-08-28T02:41:40.227Z,4.20
2022-08-28T02:44:08.428Z,4.28
2022-08-28T02:46:36.870Z,3.97
2022-08-28T02:49:05.109Z,4.10
2022-08-28T02:51:33.606Z,3.97
2022-08-28T02:54:02.489Z,3.55
2022-08-28T02:56:31.142Z,4.32
2022-08-28T02:58:59.354Z,4.55
2022-08-28T03:01:27.866Z,3.95
2022-08-28T03:03:56.086Z,4.40
2022-08-28T03:06:24.372Z,4.45
2022-08-28T03:08:52.649Z,4.10
2022-08-28T03:11:20.983Z,4.55
2022-08-28T03:13:50.282Z,4.22
2022-08-28T03:16:18.835Z,4.30
2022-08-28T03:18:47.424Z,4.35
2022-08-28T03:21:15.655Z,4.72
2022-08-28T03:23:43.808Z,5.03
2022-08-28T03:26:18.514Z,5.47
2022-08-28T03:28:49.847Z,4.65
2022-08-28T03:31:21.292Z,4.32
2022-08-28T03:33:50.523Z,4.40
2022-08-28T03:36:23.429Z,4.32
2022-08-28T03:38:54.351Z,4.65
2022-08-28T03:41:24.965Z,5.25
2022-08-28T03:43:53.211Z,5.20
2022-08-28T03:46:23.968Z,5.30
2022-08-28T03:48:54.171Z,5.78
2022-08-28T03:51:29.351Z,4.78
2022-08-28T03:54:01.986Z,4.70
2022-08-28T03:56:31.739Z,4.68
2022-08-28T03:59:02.299Z,5.10
2022-08-28T04:01:31.186Z,5.30
2022-08-28T04:03:59.784Z,5.32
2022-08-28T04:06:28.113Z,5.35
2022-08-28T04:09:00.228Z,5.10
2022-08-28T04:11:29.231Z,5.47
2022-08-28T04:13:57.954Z,6.22
2022-08-28T04:16:26.287Z,5.65
2022-08-28T04:18:54.798Z,5.13
2022-08-28T04:21:25.629Z,5.75
2022-08-28T04:23:55.773Z,6.32
2022-08-28T04:26:26.222Z,5.55
2022-08-28T04:28:56.048Z,5.43
2022-08-28T04:31:32.144Z,5.93
2022-08-28T04:34:07.285Z,5.50
2022-08-28T04:36:36.426Z,5.75
2022-08-28T04:39:08.561Z,5.35
2022-08-28T04:41:38.668Z,5.45
2022-08-28T04:44:10.545Z,5.72
2022-08-28T04:46:38.728Z,5.93
2022-08-28T04:49:07.289Z,6.32
2022-08-28T04:51:38.850Z,6.15
2022-08-28T04:54:13.011Z,5.85
2022-08-28T04:56:41.718Z,5.85
2022-08-28T04:59:11.740Z,5.70
2022-08-28T05:01:42.653Z,5.25
2022-08-28T05:04:12.335Z,5.55
2022-08-28T05:06:46.330Z,4.90
2022-08-28T05:09:17.983Z,5.40
2022-08-28T05:11:48.011Z,5.50
2022-08-28T05:14:16.641Z,4.97
2022-08-28T05:16:51.123Z,5.32
2022-08-28T05:19:21.019Z,5.18
2022-08-28T05:21:49.698Z,5.45
2022-08-28T05:24:24.449Z,6.43
2022-08-28T05:26:52.668Z,5.70
2022-08-28T05:29:20.864Z,5.75
2022-08-28T05:31:52.115Z,5.75
2022-08-28T05:34:21.100Z,5.28
2022-08-28T05:36:49.357Z,5.63
2022-08-28T05:39:18.091Z,6.10
2022-08-28T05:41:46.657Z,5.28
2022-08-28T05:44:16.826Z,5.85
2022-08-28T05:46:48.108Z,5.35
2022-08-28T05:49:18.404Z,5.70
2022-08-28T05:51:47.975Z,5.60
2022-08-28T05:54:17.127Z,5.50
2022-08-28T05:56:46.912Z,5.55
2022-08-28T05:59:16.525Z,5.80
2022-08-28T06:01:47.593Z,4.78
2022-08-28T06:04:17.897Z,5.63
2022-08-28T06:06:47.890Z,6.05
2022-08-28T06:09:30.083Z,6.22
2022-08-28T06:12:02.150Z,5.50
2022-08-28T06:14:31.499Z,4.95
2022-08-28T06:17:01.747Z,5.03
2022-08-28T06:19:32.431Z,4.93
2022-08-28T06:22:06.971Z,5.72
2022-08-28T06:24:36.363Z,5.57
2022-08-28T06:27:07.220Z,5.55
2022-08-28T06:29:35.588Z,5.45
2022-08-28T06:32:06.844Z,5.05
2022-08-28T06:34:35.139Z,5.20
2022-08-28T06:37:03.476Z,4.95
2022-08-28T06:39:31.698Z,4.97
2022-08-28T06:42:00.037Z,5.50
2022-08-28T06:44:32.073Z,5.18
2022-08-28T06:47:00.451Z,4.90
2022-08-28T06:49:28.930Z,5.60
2022-08-28T06:51:57.118Z,5.10
2022-08-28T06:54:25.305Z,4.95
2022-08-28T06:56:53.480Z,5.70
2022-08-28T06:59:21.720Z,4.85
2022-08-28T07:01:53.420Z,4.65
2022-08-28T07:04:21.876Z,4.85
2022-08-28T07:06:54.762Z,5.45
2022-08-28T07:09:24.487Z,5.82
2022-08-28T07:11:53.380Z,5.50
2022-08-28T07:14:21.526Z,5.20
2022-08-28T07:16:50.468Z,5.03
2022-08-28T07:19:20.190Z,4.22
2022-08-28T07:21:48.428Z,4.57
2022-08-28T07:24:18.274Z,4.70
2022-08-28T07:26:47.692Z,4.40
2022-08-28T07:29:16.377Z,4.47
2022-08-28T07:31:48.247Z,4.43
2022-08-28T07:34:18.999Z,4.93
2022-08-28T07:36:48.203Z,4.18
2022-08-28T07:39:16.733Z,4.72
2022-08-28T07:41:47.009Z,5.00
2022-08-28T07:44:35.140Z,4.43
2022-08-28T07:47:05.894Z,5.45
2022-08-28T07:49:34.940Z,5.22
2022-08-28T07:52:04.396Z,6.18
2022-08-28T07:54:33.247Z,5.15
2022-08-28T07:57:02.753Z,4.82
2022-08-28T07:59:36.510Z,5.90
2022-08-28T08:02:06.861Z,5.35
2022-08-28T08:04:35.391Z,5.07
2022-08-28T08:07:07.835Z,5.60
2022-08-28T08:09:44.351Z,5.30
2022-08-28T08:12:14.370Z,4.43
2022-08-28T08:14:43.811Z,4.90
2022-08-28T08:17:15.139Z,5.32
2022-08-28T08:19:43.388Z,5.10
2022-08-28T08:22:11.659Z,5.50
2022-08-28T08:24:39.847Z,4.95
2022-08-28T08:27:08.026Z,5.40
2022-08-28T08:29:37.750Z,5.28
2022-08-28T08:32:09.469Z,5.18
2022-08-28T08:34:43.586Z,5.05
2022-08-28T08:37:13.412Z,5.20
2022-08-28T08:39:43.213Z,5.90
2022-08-28T08:42:33.282Z,5.10
2022-08-28T08:45:05.892Z,5.20
2022-08-28T08:47:55.936Z,4.97
2022-08-28T08:50:34.322Z,4.72
2022-08-28T08:53:24.509Z,5.03
2022-08-28T08:55:54.986Z,6.18
2022-08-28T08:58:31.685Z,5.47
2022-08-28T09:01:23.557Z,5.50
2022-08-28T09:04:22.975Z,5.60
2022-08-28T09:06:56.628Z,6.70
2022-08-28T09:09:47.040Z,6.28
2022-08-28T09:12:24.749Z,6.25
2022-08-28T09:15:10.578Z,7.47
2022-08-28T09:17:53.404Z,8.02
2022-08-28T09:20:30.233Z,7.25
2022-08-28T09:23:02.098Z,7.78
2022-08-28T09:25:45.196Z,7.57
2022-08-28T09:28:31.919Z,7.25
2022-08-28T09:31:08.430Z,7.20
2022-08-28T09:33:47.744Z,7.15
2022-08-28T09:36:37.068Z,7.88
2022-08-28T09:39:13.456Z,7.28
2022-08-28T09:42:20.723Z,8.48
2022-08-28T09:44:56.515Z,7.70
2022-08-28T09:47:46.292Z,7.60
2022-08-28T09:50:18.060Z,6.55
2022-08-28T09:52:46.394Z,7.30
2022-08-28T09:55:31.895Z,5.95
2022-08-28T09:58:00.903Z,5.68
2022-08-28T10:00:34.367Z,6.85
2022-08-28T10:03:26.015Z,7.97
2022-08-28T10:05:54.171Z,7.47
2022-08-28T10:08:55.202Z,8.00
2022-08-28T10:11:31.338Z,7.80
2022-08-28T10:14:14.263Z,7.72
2022-08-28T10:16:55.083Z,6.80
2022-08-28T10:20:07.407Z,7.05
2022-08-28T10:22:57.195Z,7.72
2022-08-28T10:25:43.347Z,7.47
2022-08-28T10:28:26.637Z,7.60
2022-08-28T10:33:28.858Z,7.88
2022-08-28T10:36:34.267Z,6.82
2022-08-28T10:39:22.516Z,7.38
2022-08-28T10:41:54.893Z,7.57
2022-08-28T10:44:33.249Z,6.93
2022-08-28T10:47:05.391Z,7.57
2022-08-28T10:49:41.577Z,7.18
2022-08-28T10:52:28.745Z,7.25
2022-08-28T10:55:16.766Z,6.80
2022-08-28T10:58:03.499Z,6.75
2022-08-28T11:00:32.434Z,6.88
2022-08-28T11:03:03.452Z,7.55
2022-08-28T11:05:52.465Z,7.28
2022-08-28T11:08:27.725Z,7.18
2022-08-28T11:10:58.803Z,7.03
2022-08-28T11:13:59.691Z,7.07
2022-08-28T11:16:31.238Z,7.00
2022-08-28T11:19:18.033Z,6.50
2022-08-28T11:22:04.496Z,7.10
2022-08-28T11:24:47.556Z,6.53
2022-08-28T11:27:29.417Z,7.30
2022-08-28T11:30:29.834Z,6.55
2022-08-28T11:33:01.458Z,6.85
2022-08-28T11:35:50.871Z,6.72
2022-08-28T11:38:40.684Z,6.80
2022-08-28T11:41:23.080Z,6.47
2022-08-28T11:44:05.231Z,6.38
2022-08-28T11:46:36.293Z,6.75
2022-08-28T11:49:26.341Z,7.07
2022-08-28T11:52:03.425Z,7.53
2022-08-28T11:55:06.762Z,6.90
2022-08-28T11:57:55.233Z,6.75
2022-08-28T12:00:38.802Z,7.60
2022-08-28T12:03:31.358Z,7.20
2022-08-28T12:06:01.338Z,7.13
2022-08-28T12:09:01.121Z,6.80
2022-08-28T12:11:41.137Z,7.07
2022-08-28T12:14:33.579Z,7.03
2022-08-28T12:17:17.876Z,6.60
2022-08-28T12:20:10.008Z,6.63
2022-08-28T12:22:59.418Z,6.90
2022-08-28T12:25:33.924Z,6.68
2022-08-28T12:28:26.098Z,6.97
2022-08-28T12:31:19.438Z,6.68
2022-08-28T12:36:26.756Z,7.18
2022-08-28T12:38:58.448Z,6.70
2022-08-28T12:41:27.106Z,6.65
2022-08-28T12:43:58.565Z,6.85
2022-08-28T12:46:31.177Z,6.72
2022-08-28T12:49:05.530Z,6.57
2022-08-28T12:51:36.139Z,6.55
2022-08-28T12:54:07.440Z,6.47
2022-08-28T12:56:41.271Z,6.75
2022-08-28T12:59:38.574Z,6.97
2022-08-28T13:02:20.890Z,6.30
2022-08-28T13:05:00.901Z,5.73
2022-08-28T13:07:46.264Z,6.75
2022-08-28T13:10:30.927Z,6.85
2022-08-28T13:13:07.036Z,6.72
2022-08-28T13:15:52.165Z,6.43
2022-08-28T13:18:42.599Z,7.25
2022-08-28T13:21:28.660Z,6.78
2022-08-28T13:24:26.216Z,6.68
2022-08-28T13:27:23.351Z,6.53
2022-08-28T13:30:14.635Z,6.35
2022-08-28T13:33:02.594Z,6.28
2022-08-28T13:35:40.094Z,5.85
2022-08-28T13:38:13.018Z,6.30
2022-08-28T13:41:02.285Z,5.68
2022-08-28T13:43:44.741Z,5.38
2022-08-28T13:46:13.543Z,5.33
2022-08-28T13:48:41.851Z,5.55
2022-08-28T13:51:19.015Z,6.00
2022-08-28T13:53:50.481Z,5.93
2022-08-28T13:56:21.961Z,5.05
2022-08-28T13:58:57.474Z,5.30
2022-08-28T14:01:49.224Z,4.82
2022-08-28T14:04:20.511Z,4.90
2022-08-28T14:06:48.843Z,4.95
2022-08-28T14:09:17.684Z,4.90
2022-08-28T14:11:47.647Z,4.72
2022-08-28T14:14:16.922Z,4.70
2022-08-28T14:16:45.780Z,4.85
2022-08-28T14:19:14.263Z,4.70
2022-08-28T14:21:42.605Z,4.95
2022-08-28T14:24:10.964Z,6.47
2022-08-28T14:26:39.847Z,5.10
2022-08-28T14:29:10.424Z,4.55
2022-08-28T14:31:41.090Z,4.55
2022-08-28T14:34:11.581Z,5.40
2022-08-28T14:36:41.558Z,5.05
2022-08-28T14:39:11.952Z,4.97
2022-08-28T14:41:46.178Z,5.65
2022-08-28T14:44:15.007Z,4.93
2022-08-28T14:46:45.408Z,5.25
2022-08-28T14:49:15.100Z,5.05
2022-08-28T14:51:44.886Z,4.80
2022-08-28T14:54:17.040Z,5.10
2022-08-28T14:56:46.576Z,5.00
2022-08-28T14:59:23.793Z,5.15
2022-08-28T15:01:55.567Z,5.45
2022-08-28T15:04:26.090Z,5.30
2022-08-28T15:06:59.262Z,5.32
2022-08-28T15:11:56.135Z,5.03
2022-08-28T15:14:24.363Z,5.80
2022-08-28T15:16:53.498Z,5.68
2022-08-28T15:19:23.353Z,5.15
2022-08-28T15:21:54.759Z,5.88
2022-08-28T15:24:26.466Z,5.40
2022-08-28T15:26:55.434Z,5.18
2022-08-28T15:29:23.646Z,5.20
2022-08-28T15:31:52.751Z,5.63
2022-08-28T15:34:24.254Z,5.50
2022-08-28T15:36:55.707Z,5.40
2022-08-28T15:39:45.508Z,5.30
2022-08-28T15:42:14.818Z,6.13
2022-08-28T15:44:43.305Z,6.10
2022-08-28T15:47:13.772Z,5.57
2022-08-28T15:49:49.660Z,6.43
2022-08-28T15:52:19.334Z,6.85
2022-08-28T15:54:48.558Z,5.97
2022-08-28T15:57:16.970Z,5.32
2022-08-28T15:59:50.039Z,6.45
2022-08-28T16:02:25.470Z,6.80
2022-08-28T16:04:54.368Z,6.55
2022-08-28T16:07:24.327Z,5.95
2022-08-28T16:09:52.960Z,6.80
2022-08-28T16:12:21.167Z,6.82
2022-08-28T16:14:50.371Z,6.15
2022-08-28T16:17:19.989Z,6.32
2022-08-28T16:19:48.424Z,6.85
2022-08-28T16:22:17.102Z,6.50
2022-08-28T16:24:46.288Z,6.57
2022-08-28T16:30:03.759Z,6.63
2022-08-28T16:32:31.899Z,6.28
2022-08-28T16:35:03.968Z,6.38
2022-08-28T16:35:54.802Z,6.63
2022-08-28T16:37:39.669Z,6.32
2022-08-28T16:40:09.692Z,6.32
2022-08-28T16:42:37.964Z,5.63
2022-08-28T16:45:07.516Z,6.72
2022-08-28T16:47:39.066Z,5.63
2022-08-28T16:50:11.854Z,7.80
2022-08-28T16:52:41.104Z,6.55
2022-08-28T16:55:11.383Z,6.50
2022-08-28T16:57:39.696Z,6.55
2022-08-28T17:00:13.469Z,6.78
2022-08-28T17:02:43.316Z,6.72
2022-08-28T17:05:13.120Z,6.25
2022-08-28T17:07:41.670Z,5.60
2022-08-28T17:10:12.586Z,6.30
2022-08-28T17:12:41.687Z,5.80
2022-08-28T17:15:11.368Z,6.40
2022-08-28T17:17:40.775Z,7.18
2022-08-28T17:20:30.593Z,7.07
2022-08-28T17:22:58.832Z,6.47
2022-08-28T17:25:27.200Z,6.78
2022-08-28T17:27:55.598Z,6.57
2022-08-28T17:30:23.971Z,6.40
2022-08-28T17:32:52.256Z,6.70
2022-08-28T17:35:21.102Z,6.38
2022-08-28T17:37:53.732Z,6.80
2022-08-28T17:40:22.665Z,7.43
2022-08-28T17:42:53.727Z,6.90
2022-08-28T17:45:23.427Z,7.03
2022-08-28T17:47:52.777Z,7.50
2022-08-28T17:50:21.945Z,6.55
2022-08-28T17:52:50.241Z,6.70
2022-08-28T17:55:21.086Z,6.78
2022-08-28T17:57:49.258Z,7.10
2022-08-28T18:00:18.360Z,6.82
2022-08-28T18:02:49.527Z,6.85
2022-08-28T18:05:18.090Z,7.18
2022-08-28T18:07:46.392Z,6.97
2022-08-28T18:10:15.414Z,7.03
2022-08-28T18:12:43.645Z,6.95
2022-08-28T18:15:13.628Z,7.13
2022-08-28T18:17:42.841Z,7.10
2022-08-28T18:20:11.882Z,6.82
2022-08-28T18:22:40.261Z,6.82
2022-08-28T18:25:08.821Z,7.40
2022-08-28T18:27:37.068Z,7.10
2022-08-28T18:30:05.629Z,6.57
2022-08-28T18:32:34.099Z,6.95
2022-08-28T18:35:02.372Z,7.30
2022-08-28T18:37:32.876Z,7.45
2022-08-28T18:40:01.595Z,7.80
2022-08-28T18:42:30.255Z,7.32
2022-08-28T18:44:58.843Z,6.80
2022-08-28T18:47:27.139Z,7.55
2022-08-28T18:49:58.152Z,7.28
2022-08-28T18:52:26.471Z,6.95
2022-08-28T18:54:54.668Z,7.22
2022-08-28T18:57:28.798Z,7.13
2022-08-28T18:59:57.389Z,7.47
2022-08-28T19:02:27.073Z,7.45
2022-08-28T19:04:55.378Z,6.95
2022-08-28T19:07:23.784Z,6.57
2022-08-28T19:09:51.956Z,7.22
2022-08-28T19:12:20.095Z,8.15
2022-08-28T19:14:48.323Z,7.22
2022-08-28T19:17:20.535Z,7.47
2022-08-28T19:19:49.572Z,8.15
2022-08-28T19:22:18.075Z,8.00
2022-08-28T19:24:46.661Z,8.32
2022-08-28T19:27:15.548Z,7.32
2022-08-28T19:29:43.808Z,7.90
2022-08-28T19:32:12.008Z,7.50
2022-08-28T19:34:40.220Z,8.10
2022-08-28T19:37:08.428Z,7.07
2022-08-28T19:39:36.675Z,7.03
2022-08-28T19:42:05.128Z,7.00
2022-08-28T19:44:33.336Z,7.30
2022-08-28T19:47:01.919Z,7.95
2022-08-28T19:49:30.139Z,7.93
2022-08-28T19:51:59.206Z,7.28
2022-08-28T19:54:27.638Z,7.70
2022-08-28T19:56:56.115Z,7.68
2022-08-28T19:59:27.115Z,7.50
2022-08-28T20:01:55.667Z,7.07
2022-08-28T20:04:26.659Z,7.60
2022-08-28T20:06:55.000Z,8.10
2022-08-28T20:09:23.770Z,8.38
2022-08-28T20:11:53.175Z,7.88
2022-08-28T20:14:21.928Z,6.95
2022-08-28T20:16:51.431Z,7.40
2022-08-28T20:19:20.849Z,8.07
2022-08-28T20:21:50.127Z,7.43
2022-08-28T20:24:23.603Z,7.53
2022-08-28T20:26:53.150Z,6.15
2022-08-28T20:29:21.936Z,6.90
2022-08-28T20:31:50.281Z,7.32
2022-08-28T20:34:20.430Z,6.22
2022-08-28T20:36:48.892Z,6.43
2022-08-28T20:39:20.294Z,7.28
2022-08-28T20:41:49.388Z,7.00
2022-08-28T20:44:19.964Z,6.93
2022-08-28T20:46:51.491Z,7.38
2022-08-28T20:49:23.866Z,7.30
2022-08-28T20:51:58.825Z,7.32
2022-08-28T20:54:46.054Z,7.43
2022-08-28T20:57:19.794Z,7.07
2022-08-28T20:59:48.464Z,6.93
2022-08-28T21:02:22.670Z,7.03
2022-08-28T21:04:52.093Z,6.90
2022-08-28T21:07:22.248Z,7.25
2022-08-28T21:10:05.087Z,6.82
2022-08-28T21:12:42.649Z,6.97
2022-08-28T21:15:12.998Z,6.72
2022-08-28T21:17:42.000Z,7.22
2022-08-28T21:20:14.881Z,7.05
2022-08-28T21:22:43.526Z,6.45
2022-08-28T21:25:13.392Z,6.07
2022-08-28T21:27:42.176Z,6.28
2022-08-28T21:30:13.442Z,6.10
2022-08-28T21:32:42.145Z,6.45
2022-08-28T21:35:12.357Z,5.75
2022-08-28T21:37:42.095Z,5.78
2022-08-28T21:40:12.750Z,5.72
2022-08-28T21:42:41.595Z,4.25
2022-08-28T21:45:12.180Z,5.38
2022-08-28T21:47:41.785Z,4.85
2022-08-28T21:50:11.236Z,4.90
2022-08-28T21:52:39.606Z,3.50
2022-08-28T21:55:11.779Z,3.88
2022-08-28T21:57:42.914Z,3.83
2022-08-28T22:00:18.066Z,3.83
2022-08-28T22:02:47.273Z,4.63
2022-08-28T22:05:16.296Z,3.67
2022-08-28T22:07:45.122Z,3.90
2022-08-28T22:10:14.022Z,3.67
2022-08-28T22:12:42.228Z,3.95
2022-08-28T22:15:10.656Z,4.07
2022-08-28T22:17:38.815Z,5.20
2022-08-28T22:20:07.473Z,5.25
2022-08-28T22:22:54.093Z,5.15
2022-08-28T22:25:22.347Z,6.22
2022-08-28T22:27:50.580Z,7.03
2022-08-28T22:30:19.928Z,7.45
2022-08-28T22:32:48.215Z,6.95
2022-08-28T22:35:18.828Z,6.47
2022-08-28T22:37:47.591Z,7.28
2022-08-28T22:40:15.956Z,6.57
2022-08-28T22:42:44.532Z,6.65
2022-08-28T22:45:13.090Z,6.88
2022-08-28T22:47:41.308Z,6.25
2022-08-28T22:50:10.536Z,5.82
2022-08-28T22:52:39.092Z,5.65
2022-08-28T22:55:13.079Z,6.18
2022-08-28T22:57:41.774Z,5.68
2022-08-28T23:00:16.596Z,6.10
2022-08-28T23:02:45.240Z,6.38
2022-08-28T23:05:14.489Z,6.95
2022-08-28T23:07:45.724Z,7.40
2022-08-28T23:10:15.897Z,8.13
2022-08-28T23:12:44.380Z,8.07
2022-08-28T23:15:16.812Z,8.50
2022-08-28T23:17:45.534Z,8.35
2022-08-28T23:20:18.624Z,7.75
2022-08-28T23:22:48.457Z,8.50
2022-08-28T23:25:20.487Z,8.85
2022-08-28T23:27:50.013Z,8.52
2022-08-28T23:30:19.518Z,8.52
2022-08-28T23:32:47.839Z,8.20
2022-08-28T23:35:17.203Z,8.57
2022-08-28T23:37:48.930Z,8.20
2022-08-28T23:40:23.221Z,8.18
2022-08-28T23:42:52.821Z,8.18
2022-08-28T23:45:21.805Z,8.65
2022-08-28T23:47:51.270Z,7.57
2022-08-28T23:50:22.588Z,7.82
2022-08-28T23:52:52.238Z,8.18
2022-08-28T23:55:20.861Z,8.55
2022-08-28T23:57:52.303Z,8.05
